createdAt,value
2022-10-26T00:01:40.609Z,7.80
2022-10-26T00:09:01.602Z,7.80
2022-10-26T00:11:47.968Z,7.80
2022-10-26T00:14:35.208Z,7.80
2022-10-26T00:17:03.624Z,7.80
2022-10-26T00:19:35.029Z,7.80
2022-10-26T00:22:03.197Z,7.90
2022-10-26T00:24:32.568Z,7.90
2022-10-26T00:27:02.074Z,7.90
2022-10-26T00:29:30.422Z,7.90
2022-10-26T00:31:58.522Z,7.80
2022-10-26T00:34:26.581Z,7.80
2022-10-26T00:36:54.624Z,7.80
2022-10-26T00:39:22.951Z,7.80
2022-10-26T00:41:51.364Z,7.80
2022-10-26T00:45:00.647Z,7.80
2022-10-26T00:47:39.944Z,7.80
2022-10-26T00:50:11.773Z,7.80
2022-10-26T00:52:40.522Z,7.70
2022-10-26T00:55:09.674Z,7.70
2022-10-26T00:57:40.157Z,7.70
2022-10-26T01:00:10.617Z,7.70
2022-10-26T01:02:38.967Z,7.70
2022-10-26T01:05:08.057Z,7.60
2022-10-26T01:07:37.440Z,7.60
2022-10-26T01:10:07.226Z,7.60
2022-10-26T01:12:35.417Z,7.50
2022-10-26T01:15:03.622Z,7.50
2022-10-26T01:17:56.600Z,7.40
2022-10-26T01:21:03.039Z,7.40
2022-10-26T01:23:38.853Z,7.40
2022-10-26T01:26:26.020Z,7.30
2022-10-26T01:29:21.266Z,7.30
2022-10-26T01:31:57.972Z,7.30
2022-10-26T01:34:32.754Z,7.20
2022-10-26T01:37:08.360Z,7.20
2022-10-26T01:39:42.662Z,7.20
2022-10-26T01:42:13.655Z,7.10
2022-10-26T01:44:47.245Z,7.00
2022-10-26T01:47:18.213Z,7.00
2022-10-26T01:49:50.897Z,7.00
2022-10-26T01:52:19.769Z,6.90
2022-10-26T01:54:47.882Z,6.90
2022-10-26T01:57:18.763Z,6.90
2022-10-26T02:00:04.901Z,6.80
2022-10-26T02:02:54.117Z,6.80
2022-10-26T02:05:33.821Z,6.70
2022-10-26T02:08:28.395Z,6.70
2022-10-26T02:11:07.467Z,6.60
2022-10-26T02:13:43.584Z,6.50
2022-10-26T02:16:20.792Z,6.50
2022-10-26T02:18:55.175Z,6.50
2022-10-26T02:21:26.598Z,6.50
2022-10-26T02:23:58.752Z,6.50
2022-10-26T02:26:29.753Z,6.40
2022-10-26T02:29:02.401Z,6.40
2022-10-26T02:31:33.091Z,6.50
2022-10-26T02:34:07.777Z,6.50
2022-10-26T02:36:40.025Z,6.50
2022-10-26T02:39:10.530Z,6.50
2022-10-26T02:41:40.999Z,6.50
2022-10-26T02:44:15.632Z,6.50
2022-10-26T02:46:44.930Z,6.50
2022-10-26T02:49:14.730Z,6.60
2022-10-26T02:54:23.368Z,6.60
2022-10-26T02:56:56.002Z,6.60
2022-10-26T02:59:26.466Z,6.60
2022-10-26T03:01:55.350Z,6.60
2022-10-26T03:04:30.991Z,6.60
2022-10-26T03:06:59.512Z,6.60
2022-10-26T03:09:28.237Z,6.60
2022-10-26T03:11:56.261Z,6.60
2022-10-26T03:14:24.357Z,6.60
2022-10-26T03:16:52.502Z,6.60
2022-10-26T03:19:20.689Z,6.60
2022-10-26T03:21:50.046Z,6.60
2022-10-26T03:24:18.062Z,6.50
2022-10-26T03:26:46.120Z,6.60
2022-10-26T03:29:14.164Z,6.60
2022-10-26T03:31:42.203Z,6.60
2022-10-26T03:34:10.259Z,6.60
2022-10-26T03:36:38.334Z,6.60
2022-10-26T03:39:07.810Z,6.70
2022-10-26T03:41:35.860Z,6.70
2022-10-26T03:44:03.910Z,6.70
2022-10-26T03:46:31.961Z,6.70
2022-10-26T03:49:00.007Z,6.70
2022-10-26T03:51:28.212Z,6.60
2022-10-26T03:53:56.268Z,6.60
2022-10-26T03:56:25.926Z,6.50
2022-10-26T03:58:53.985Z,6.50
2022-10-26T04:01:24.314Z,6.40
2022-10-26T04:03:52.439Z,6.40
2022-10-26T04:06:20.573Z,6.40
2022-10-26T04:08:51.033Z,6.40
2022-10-26T04:11:19.611Z,6.30
2022-10-26T04:13:49.203Z,6.30
2022-10-26T04:16:17.293Z,6.30
2022-10-26T04:18:46.142Z,6.30
2022-10-26T04:21:17.618Z,6.30
2022-10-26T04:23:45.685Z,6.30
2022-10-26T04:26:13.705Z,6.30
2022-10-26T04:28:41.731Z,6.30
2022-10-26T04:31:11.138Z,6.30
2022-10-26T04:33:39.158Z,6.30
2022-10-26T04:36:08.028Z,6.30
2022-10-26T04:38:36.047Z,6.30
2022-10-26T04:41:04.482Z,6.30
2022-10-26T04:43:32.479Z,6.30
2022-10-26T04:46:00.571Z,6.40
2022-10-26T04:48:29.977Z,6.40
2022-10-26T04:51:00.670Z,6.50
2022-10-26T04:53:29.024Z,6.50
2022-10-26T04:56:01.131Z,6.50
2022-10-26T04:58:29.558Z,6.50
2022-10-26T05:00:58.514Z,6.50
2022-10-26T05:03:26.685Z,6.60
2022-10-26T05:05:59.696Z,6.60
2022-10-26T05:08:29.823Z,6.60
2022-10-26T05:10:57.851Z,6.60
2022-10-26T05:15:55.176Z,6.70
2022-10-26T05:18:23.319Z,6.80
2022-10-26T05:20:55.310Z,6.80
2022-10-26T05:23:23.926Z,6.80
2022-10-26T05:25:52.093Z,6.90
2022-10-26T05:28:20.163Z,6.90
2022-10-26T05:30:48.376Z,6.90
2022-10-26T05:33:16.452Z,6.90
2022-10-26T05:35:44.587Z,6.80
2022-10-26T05:38:15.684Z,6.80
2022-10-26T05:40:50.308Z,6.90
2022-10-26T05:43:19.121Z,6.90
2022-10-26T05:45:47.253Z,6.90
2022-10-26T05:48:15.319Z,6.90
2022-10-26T05:50:43.354Z,6.90
2022-10-26T05:53:12.744Z,6.90
2022-10-26T05:55:41.584Z,7.00
2022-10-26T05:58:12.116Z,7.10
2022-10-26T06:00:48.718Z,7.20
2022-10-26T06:06:02.627Z,7.60
2022-10-26T06:08:35.396Z,7.80
2022-10-26T06:11:03.978Z,8.00
2022-10-26T06:13:32.743Z,8.20
2022-10-26T06:16:22.805Z,8.30
2022-10-26T06:19:02.153Z,8.50
2022-10-26T06:21:42.118Z,8.60
2022-10-26T06:24:17.468Z,8.80
2022-10-26T06:26:53.552Z,9.00
2022-10-26T06:29:33.218Z,9.20
2022-10-26T06:32:04.404Z,9.40
2022-10-26T06:34:36.414Z,9.60
2022-10-26T06:37:06.458Z,9.80
2022-10-26T06:39:43.462Z,10.00
2022-10-26T06:42:12.621Z,10.10
2022-10-26T06:44:46.376Z,10.20
2022-10-26T06:47:26.599Z,10.40
2022-10-26T06:50:20.929Z,10.50
2022-10-26T06:53:05.877Z,10.60
2022-10-26T06:55:45.669Z,10.80
2022-10-26T06:58:28.682Z,10.90
2022-10-26T07:00:59.643Z,11.00
2022-10-26T07:03:49.327Z,11.10
2022-10-26T07:08:49.220Z,11.20
2022-10-26T07:11:44.442Z,11.20
2022-10-26T07:14:15.798Z,11.30
2022-10-26T07:16:48.139Z,11.30
2022-10-26T07:19:29.208Z,11.30
2022-10-26T07:22:27.262Z,11.30
2022-10-26T07:25:02.891Z,11.40
2022-10-26T07:27:37.535Z,11.40
2022-10-26T07:30:06.788Z,11.40
2022-10-26T07:32:39.712Z,11.40
2022-10-26T07:35:13.156Z,11.50
2022-10-26T07:37:46.034Z,11.50
2022-10-26T07:42:57.080Z,11.60
2022-10-26T07:45:31.275Z,11.70
2022-10-26T07:48:09.221Z,11.70
2022-10-26T07:50:37.611Z,11.80
2022-10-26T07:53:05.955Z,11.90
2022-10-26T07:55:37.695Z,12.10
2022-10-26T07:58:09.593Z,12.20
2022-10-26T08:00:37.815Z,12.30
2022-10-26T08:03:27.107Z,12.50
2022-10-26T08:05:56.106Z,12.60
2022-10-26T08:08:30.074Z,12.70
2022-10-26T08:11:03.063Z,12.90
2022-10-26T08:13:35.573Z,13.00
2022-10-26T08:16:16.457Z,13.10
2022-10-26T08:18:56.554Z,13.20
2022-10-26T08:21:36.221Z,13.30
2022-10-26T08:24:13.300Z,13.40
2022-10-26T08:26:42.254Z,13.50
2022-10-26T08:29:12.174Z,13.60
2022-10-26T08:31:40.610Z,13.70
2022-10-26T08:34:17.891Z,13.90
2022-10-26T08:36:50.341Z,14.00
2022-10-26T08:39:18.667Z,14.10
2022-10-26T08:41:52.854Z,14.10
2022-10-26T08:44:52.079Z,14.20
2022-10-26T08:47:23.507Z,14.30
2022-10-26T08:50:02.096Z,14.30
2022-10-26T08:52:37.545Z,14.30
2022-10-26T08:55:33.868Z,14.40
2022-10-26T08:58:39.658Z,14.40
2022-10-26T09:01:18.615Z,14.40
2022-10-26T09:03:50.757Z,14.40
2022-10-26T09:06:30.706Z,14.50
2022-10-26T09:09:15.149Z,14.50
2022-10-26T09:11:56.509Z,14.50
2022-10-26T09:14:49.580Z,14.50
2022-10-26T09:17:32.519Z,14.60
2022-10-26T09:20:19.336Z,14.60
2022-10-26T09:22:54.656Z,14.70
2022-10-26T09:25:28.469Z,14.80
2022-10-26T09:27:59.701Z,14.80
2022-10-26T09:30:32.734Z,14.90
2022-10-26T09:33:10.056Z,15.00
2022-10-26T09:35:51.910Z,15.10
2022-10-26T09:38:29.022Z,15.10
2022-10-26T09:41:00.752Z,15.10
2022-10-26T09:43:36.939Z,15.20
2022-10-26T09:46:06.035Z,15.20
2022-10-26T09:48:40.795Z,15.30
2022-10-26T09:51:14.717Z,15.40
2022-10-26T09:53:42.842Z,15.40
2022-10-26T09:56:12.948Z,15.40
2022-10-26T09:58:44.961Z,15.50
2022-10-26T10:01:23.851Z,15.50
2022-10-26T10:04:21.222Z,15.50
2022-10-26T10:06:55.168Z,15.40
2022-10-26T10:09:24.890Z,15.50
2022-10-26T10:11:58.853Z,15.40
2022-10-26T10:14:28.947Z,15.40
2022-10-26T10:17:08.247Z,15.40
2022-10-26T10:19:39.916Z,15.30
2022-10-26T10:22:13.232Z,15.30
2022-10-26T10:24:42.944Z,15.30
2022-10-26T10:27:19.660Z,15.30
2022-10-26T10:29:50.514Z,15.20
2022-10-26T10:32:21.531Z,15.20
2022-10-26T10:34:52.271Z,15.10
2022-10-26T10:37:27.215Z,15.10
2022-10-26T10:39:58.993Z,15.10
2022-10-26T10:42:32.026Z,15.00
2022-10-26T10:45:01.222Z,15.00
2022-10-26T10:47:31.910Z,15.00
2022-10-26T10:50:03.620Z,15.00
2022-10-26T10:52:34.160Z,15.00
2022-10-26T10:55:17.356Z,15.00
2022-10-26T10:58:00.072Z,15.10
2022-10-26T11:00:28.767Z,15.20
2022-10-26T11:03:10.424Z,15.20
2022-10-26T11:05:57.329Z,15.30
2022-10-26T11:08:31.779Z,15.40
2022-10-26T11:11:04.121Z,15.50
2022-10-26T11:13:37.822Z,15.60
2022-10-26T11:16:13.192Z,15.70
2022-10-26T11:18:51.745Z,15.90
2022-10-26T11:21:25.825Z,16.10
2022-10-26T11:24:02.441Z,16.30
2022-10-26T11:26:36.596Z,16.40
2022-10-26T11:31:54.692Z,16.60
2022-10-26T11:34:30.894Z,16.60
2022-10-26T11:37:06.284Z,16.50
2022-10-26T11:39:43.502Z,16.50
2022-10-26T11:42:21.128Z,16.50
2022-10-26T11:44:54.415Z,16.40
2022-10-26T11:47:30.617Z,16.40
2022-10-26T11:50:05.878Z,16.40
2022-10-26T11:52:42.105Z,16.40
2022-10-26T11:55:12.376Z,16.40
2022-10-26T11:57:41.955Z,16.40
2022-10-26T12:00:17.360Z,16.50
2022-10-26T12:02:50.133Z,16.40
2022-10-26T12:05:21.850Z,16.40
2022-10-26T12:07:56.855Z,16.40
2022-10-26T12:10:28.925Z,16.40
2022-10-26T12:13:05.224Z,16.40
2022-10-26T12:15:58.514Z,16.40
2022-10-26T12:18:53.880Z,16.40
2022-10-26T12:21:25.073Z,16.40
2022-10-26T12:24:26.420Z,16.30
2022-10-26T12:26:56.321Z,16.30
2022-10-26T12:29:46.724Z,16.20
2022-10-26T12:32:58.824Z,16.20
2022-10-26T12:35:42.111Z,16.20
2022-10-26T12:38:58.688Z,16.20
2022-10-26T12:41:34.981Z,16.30
2022-10-26T12:44:45.771Z,16.30
2022-10-26T12:47:51.860Z,16.40
2022-10-26T12:53:16.089Z,16.50
2022-10-26T12:56:17.487Z,16.60
2022-10-26T12:59:33.488Z,16.60
2022-10-26T13:02:37.538Z,16.60
2022-10-26T13:05:53.247Z,16.60
2022-10-26T13:08:24.794Z,16.60
2022-10-26T13:11:05.458Z,16.60
2022-10-26T13:13:36.340Z,16.60
2022-10-26T13:16:47.665Z,16.70
2022-10-26T13:19:43.779Z,16.70
2022-10-26T13:22:29.966Z,16.70
2022-10-26T13:28:57.599Z,16.70
2022-10-26T13:36:02.694Z,16.70
2022-10-26T13:39:47.966Z,16.60
2022-10-26T13:42:46.573Z,16.60
2022-10-26T13:54:00.324Z,16.60
2022-10-26T13:57:24.953Z,16.70
2022-10-26T14:00:42.160Z,16.80
2022-10-26T14:16:18.277Z,16.80
2022-10-26T14:25:16.694Z,17.10
2022-10-26T14:29:12.137Z,17.40
2022-10-26T14:32:50.519Z,17.30
2022-10-26T15:37:27.924Z,15.60
2022-10-26T15:41:26.533Z,15.60
2022-10-26T15:46:54.199Z,15.40
2022-10-26T15:52:34.197Z,15.30
2022-10-26T15:55:27.555Z,15.30
2022-10-26T15:58:03.600Z,15.30
2022-10-26T16:01:22.581Z,15.30
2022-10-26T16:04:20.193Z,15.30
2022-10-26T16:06:48.497Z,15.30
2022-10-26T16:10:04.449Z,15.20
2022-10-26T16:16:19.991Z,15.10
2022-10-26T16:19:32.754Z,15.10
2022-10-26T16:22:48.577Z,15.00
2022-10-26T16:25:36.307Z,14.90
2022-10-26T16:28:23.965Z,14.90
2022-10-26T16:31:37.893Z,14.80
2022-10-26T16:34:33.058Z,14.80
2022-10-26T16:37:33.943Z,14.80
2022-10-26T16:40:28.774Z,14.80
2022-10-26T16:47:14.669Z,14.70
2022-10-26T16:50:18.462Z,14.60
2022-10-26T16:53:33.922Z,14.60
2022-10-26T16:57:01.763Z,14.60
2022-10-26T17:00:23.541Z,14.50
2022-10-26T17:03:05.336Z,14.50
2022-10-26T17:05:43.575Z,14.50
2022-10-26T17:13:22.503Z,14.40
2022-10-26T17:19:56.532Z,14.40
2022-10-26T17:22:56.916Z,14.40
2022-10-26T17:26:28.048Z,14.30
2022-10-26T17:34:14.403Z,14.30
2022-10-26T17:37:10.907Z,14.20
2022-10-26T17:42:58.314Z,14.30
2022-10-26T17:52:26.910Z,14.20
2022-10-26T17:55:03.885Z,14.20
2022-10-26T18:01:36.896Z,14.30
2022-10-26T18:04:48.959Z,14.20
2022-10-26T18:07:42.585Z,14.20
2022-10-26T18:10:36.884Z,14.20
2022-10-26T18:13:17.022Z,14.20
2022-10-26T18:15:46.893Z,14.20
2022-10-26T18:18:26.829Z,14.20
2022-10-26T18:21:04.582Z,14.20
2022-10-26T18:23:47.381Z,14.20
2022-10-26T18:26:28.461Z,14.10
2022-10-26T18:28:59.564Z,14.10
2022-10-26T18:31:30.769Z,14.20
2022-10-26T18:34:02.208Z,14.20
2022-10-26T18:36:43.236Z,14.20
2022-10-26T18:39:25.489Z,14.20
2022-10-26T18:42:19.670Z,14.10
2022-10-26T18:44:48.020Z,14.10
2022-10-26T18:48:07.802Z,14.10
2022-10-26T18:50:47.651Z,14.10
2022-10-26T18:53:42.607Z,14.10
2022-10-26T18:56:33.545Z,14.10
2022-10-26T18:59:04.447Z,14.10
2022-10-26T19:01:47.126Z,14.10
2022-10-26T19:08:27.908Z,14.10
2022-10-26T19:12:01.506Z,14.10
2022-10-26T19:14:37.320Z,14.10
2022-10-26T19:24:33.624Z,14.10
2022-10-26T19:27:44.360Z,14.00
2022-10-26T19:30:18.482Z,14.00
2022-10-26T19:33:04.033Z,14.00
2022-10-26T19:36:18.669Z,14.00
2022-10-26T19:39:16.704Z,14.00
2022-10-26T19:41:59.673Z,14.00
2022-10-26T19:45:39.902Z,14.00
2022-10-26T19:48:50.268Z,14.00
2022-10-26T19:51:26.602Z,13.90
2022-10-26T19:54:11.524Z,14.00
2022-10-26T19:57:50.748Z,13.90
2022-10-26T20:01:07.454Z,13.90
2022-10-26T20:04:33.625Z,13.90
2022-10-26T20:08:42.781Z,13.90
2022-10-26T20:12:31.911Z,13.90
2022-10-26T22:24:29.348Z,13.50
2022-10-26T22:32:59.288Z,13.50
2022-10-26T22:59:41.509Z,13.30
2022-10-26T23:08:07.688Z,13.30
2022-10-26T23:15:34.423Z,13.20
2022-10-26T23:18:06.926Z,13.20
2022-10-26T23:20:49.532Z,13.20
2022-10-26T23:23:38.720Z,13.10
2022-10-26T23:26:19.282Z,13.10
2022-10-26T23:28:49.670Z,13.10
2022-10-26T23:31:23.141Z,13.10
2022-10-26T23:34:06.173Z,13.00
2022-10-26T23:36:36.176Z,13.00
2022-10-26T23:39:04.462Z,13.00
2022-10-26T23:41:32.686Z,12.90
2022-10-26T23:44:04.668Z,12.90
2022-10-26T23:47:17.689Z,12.90
2022-10-26T23:54:11.006Z,12.80
2022-10-26T23:56:52.580Z,12.80
2022-10-26T23:59:34.800Z,12.80
